sensor_id;sensor_type;location;lat;lon;timestamp;P1;durP1;ratioP1;P2;durP2;ratioP2
66189;SDS011;52992;52.084;5.412;2023-04-03T00:00:33;25.37;;;24.27;;
66189;SDS011;52992;52.084;5.412;2023-04-03T00:03:01;24.10;;;22.97;;
66189;SDS011;52992;52.084;5.412;2023-04-03T00:05:28;25.77;;;24.60;;
66189;SDS011;52992;52.084;5.412;2023-04-03T00:07:55;26.60;;;25.07;;
66189;SDS011;52992;52.084;5.412;2023-04-03T00:10:22;25.67;;;24.57;;
66189;SDS011;52992;52.084;5.412;2023-04-03T00:12:49;25.07;;;23.87;;
66189;SDS011;52992;52.084;5.412;2023-04-03T00:15:16;25.00;;;23.80;;
66189;SDS011;52992;52.084;5.412;2023-04-03T00:17:43;25.63;;;24.50;;
66189;SDS011;52992;52.084;5.412;2023-04-03T00:20:10;25.63;;;24.43;;
66189;SDS011;52992;52.084;5.412;2023-04-03T00:22:37;27.07;;;25.87;;
66189;SDS011;52992;52.084;5.412;2023-04-03T00:25:04;25.20;;;24.10;;
66189;SDS011;52992;52.084;5.412;2023-04-03T00:27:31;25.83;;;24.73;;
66189;SDS011;52992;52.084;5.412;2023-04-03T00:29:58;27.23;;;26.03;;
66189;SDS011;52992;52.084;5.412;2023-04-03T00:32:25;25.13;;;23.83;;
66189;SDS011;52992;52.084;5.412;2023-04-03T00:34:51;25.13;;;24.03;;
66189;SDS011;52992;52.084;5.412;2023-04-03T00:37:18;25.27;;;24.07;;
66189;SDS011;52992;52.084;5.412;2023-04-03T00:39:45;26.13;;;25.03;;
66189;SDS011;52992;52.084;5.412;2023-04-03T00:42:12;24.97;;;23.87;;
66189;SDS011;52992;52.084;5.412;2023-04-03T00:47:06;26.20;;;25.00;;
66189;SDS011;52992;52.084;5.412;2023-04-03T00:49:37;25.63;;;24.37;;
66189;SDS011;52992;52.084;5.412;2023-04-03T00:52:09;24.43;;;23.43;;
66189;SDS011;52992;52.084;5.412;2023-04-03T00:54:42;26.47;;;25.20;;
66189;SDS011;52992;52.084;5.412;2023-04-03T00:57:11;25.27;;;24.07;;
66189;SDS011;52992;52.084;5.412;2023-04-03T00:59:40;26.60;;;25.10;;
66189;SDS011;52992;52.084;5.412;2023-04-03T01:02:11;26.03;;;24.73;;
66189;SDS011;52992;52.084;5.412;2023-04-03T01:04:39;25.47;;;24.47;;
66189;SDS011;52992;52.084;5.412;2023-04-03T01:07:50;26.40;;;25.17;;
66189;SDS011;52992;52.084;5.412;2023-04-03T01:10:00;25.53;;;24.43;;
66189;SDS011;52992;52.084;5.412;2023-04-03T01:12:31;27.13;;;26.03;;
66189;SDS011;52992;52.084;5.412;2023-04-03T01:15:05;26.23;;;24.93;;
66189;SDS011;52992;52.084;5.412;2023-04-03T01:17:48;25.67;;;24.57;;
66189;SDS011;52992;52.084;5.412;2023-04-03T01:25:38;24.70;;;23.60;;
66189;SDS011;52992;52.084;5.412;2023-04-03T01:28:12;25.73;;;24.53;;
66189;SDS011;52992;52.084;5.412;2023-04-03T01:33:23;25.23;;;24.03;;
66189;SDS011;52992;52.084;5.412;2023-04-03T01:35:50;26.47;;;25.27;;
66189;SDS011;52992;52.084;5.412;2023-04-03T01:38:18;27.67;;;26.27;;
66189;SDS011;52992;52.084;5.412;2023-04-03T01:40:44;24.00;;;22.90;;
66189;SDS011;52992;52.084;5.412;2023-04-03T01:43:12;25.03;;;23.53;;
66189;SDS011;52992;52.084;5.412;2023-04-03T01:45:39;25.20;;;24.10;;
66189;SDS011;52992;52.084;5.412;2023-04-03T01:48:06;25.10;;;23.87;;
66189;SDS011;52992;52.084;5.412;2023-04-03T01:50:33;26.50;;;25.30;;
66189;SDS011;52992;52.084;5.412;2023-04-03T01:53:00;26.47;;;25.27;;
66189;SDS011;52992;52.084;5.412;2023-04-03T01:55:27;25.47;;;24.27;;
66189;SDS011;52992;52.084;5.412;2023-04-03T01:57:54;25.60;;;24.40;;
66189;SDS011;52992;52.084;5.412;2023-04-03T02:00:21;24.87;;;23.77;;
66189;SDS011;52992;52.084;5.412;2023-04-03T02:02:49;26.93;;;25.83;;
66189;SDS011;52992;52.084;5.412;2023-04-03T02:05:16;25.10;;;24.00;;
66189;SDS011;52992;52.084;5.412;2023-04-03T02:07:43;27.33;;;26.13;;
66189;SDS011;52992;52.084;5.412;2023-04-03T02:10:10;25.67;;;24.47;;
66189;SDS011;52992;52.084;5.412;2023-04-03T02:12:37;26.33;;;24.83;;
66189;SDS011;52992;52.084;5.412;2023-04-03T02:15:04;26.83;;;25.50;;
66189;SDS011;52992;52.084;5.412;2023-04-03T02:17:31;26.53;;;25.23;;
66189;SDS011;52992;52.084;5.412;2023-04-03T02:19:58;26.50;;;25.30;;
66189;SDS011;52992;52.084;5.412;2023-04-03T02:22:25;26.97;;;25.77;;
66189;SDS011;52992;52.084;5.412;2023-04-03T02:24:52;27.50;;;26.30;;
66189;SDS011;52992;52.084;5.412;2023-04-03T02:27:19;26.37;;;25.17;;
66189;SDS011;52992;52.084;5.412;2023-04-03T02:29:47;26.23;;;25.03;;
66189;SDS011;52992;52.084;5.412;2023-04-03T02:32:14;26.73;;;25.43;;
66189;SDS011;52992;52.084;5.412;2023-04-03T02:34:42;25.50;;;24.47;;
66189;SDS011;52992;52.084;5.412;2023-04-03T02:37:11;28.33;;;27.00;;
66189;SDS011;52992;52.084;5.412;2023-04-03T02:39:38;25.53;;;24.43;;
66189;SDS011;52992;52.084;5.412;2023-04-03T02:42:05;27.10;;;25.83;;
66189;SDS011;52992;52.084;5.412;2023-04-03T02:44:33;26.07;;;24.97;;
66189;SDS011;52992;52.084;5.412;2023-04-03T02:47:00;25.77;;;24.57;;
66189;SDS011;52992;52.084;5.412;2023-04-03T02:49:27;25.33;;;23.83;;
66189;SDS011;52992;52.084;5.412;2023-04-03T02:51:54;26.20;;;25.00;;
66189;SDS011;52992;52.084;5.412;2023-04-03T02:54:21;25.80;;;24.70;;
66189;SDS011;52992;52.084;5.412;2023-04-03T02:56:53;26.47;;;25.33;;
66189;SDS011;52992;52.084;5.412;2023-04-03T02:59:20;25.77;;;24.43;;
66189;SDS011;52992;52.084;5.412;2023-04-03T03:01:47;27.70;;;26.50;;
66189;SDS011;52992;52.084;5.412;2023-04-03T03:04:14;24.93;;;23.60;;
66189;SDS011;52992;52.084;5.412;2023-04-03T03:06:42;27.17;;;25.93;;
66189;SDS011;52992;52.084;5.412;2023-04-03T03:09:10;25.63;;;24.43;;
66189;SDS011;52992;52.084;5.412;2023-04-03T03:11:37;26.13;;;24.83;;
66189;SDS011;52992;52.084;5.412;2023-04-03T03:14:04;26.23;;;25.03;;
66189;SDS011;52992;52.084;5.412;2023-04-03T03:16:32;24.83;;;23.70;;
66189;SDS011;52992;52.084;5.412;2023-04-03T03:18:59;26.13;;;25.03;;
66189;SDS011;52992;52.084;5.412;2023-04-03T03:21:27;26.43;;;25.23;;
66189;SDS011;52992;52.084;5.412;2023-04-03T03:23:54;26.93;;;25.43;;
66189;SDS011;52992;52.084;5.412;2023-04-03T03:26:21;25.60;;;24.10;;
66189;SDS011;52992;52.084;5.412;2023-04-03T03:28:51;27.80;;;26.57;;
66189;SDS011;52992;52.084;5.412;2023-04-03T03:31:18;24.83;;;23.60;;
66189;SDS011;52992;52.084;5.412;2023-04-03T03:33:45;25.70;;;24.50;;
66189;SDS011;52992;52.084;5.412;2023-04-03T03:36:12;24.77;;;23.67;;
66189;SDS011;52992;52.084;5.412;2023-04-03T03:38:39;26.03;;;24.83;;
66189;SDS011;52992;52.084;5.412;2023-04-03T03:41:08;26.63;;;25.47;;
66189;SDS011;52992;52.084;5.412;2023-04-03T03:43:35;24.10;;;22.97;;
66189;SDS011;52992;52.084;5.412;2023-04-03T03:46:04;26.80;;;25.23;;
66189;SDS011;52992;52.084;5.412;2023-04-03T03:48:31;27.43;;;26.30;;
66189;SDS011;52992;52.084;5.412;2023-04-03T03:50:58;28.50;;;27.10;;
66189;SDS011;52992;52.084;5.412;2023-04-03T03:53:29;25.93;;;24.50;;
66189;SDS011;52992;52.084;5.412;2023-04-03T03:56:02;25.60;;;24.40;;
66189;SDS011;52992;52.084;5.412;2023-04-03T03:58:30;25.60;;;24.47;;
66189;SDS011;52992;52.084;5.412;2023-04-03T04:01:00;26.43;;;25.13;;
66189;SDS011;52992;52.084;5.412;2023-04-03T04:03:34;26.10;;;24.80;;
66189;SDS011;52992;52.084;5.412;2023-04-03T04:06:01;25.70;;;24.30;;
66189;SDS011;52992;52.084;5.412;2023-04-03T04:08:28;24.63;;;23.53;;
66189;SDS011;52992;52.084;5.412;2023-04-03T04:10:55;26.17;;;24.70;;
66189;SDS011;52992;52.084;5.412;2023-04-03T04:13:22;26.70;;;25.37;;
66189;SDS011;52992;52.084;5.412;2023-04-03T04:15:49;25.30;;;23.77;;
66189;SDS011;52992;52.084;5.412;2023-04-03T04:18:17;27.47;;;25.73;;
66189;SDS011;52992;52.084;5.412;2023-04-03T04:20:47;26.20;;;24.67;;
66189;SDS011;52992;52.084;5.412;2023-04-03T04:23:16;23.87;;;22.77;;
66189;SDS011;52992;52.084;5.412;2023-04-03T04:25:46;27.97;;;26.57;;
66189;SDS011;52992;52.084;5.412;2023-04-03T04:28:15;28.17;;;26.63;;
66189;SDS011;52992;52.084;5.412;2023-04-03T04:30:43;26.07;;;24.77;;
66189;SDS011;52992;52.084;5.412;2023-04-03T04:33:14;26.97;;;25.40;;
66189;SDS011;52992;52.084;5.412;2023-04-03T04:35:42;26.73;;;25.17;;
66189;SDS011;52992;52.084;5.412;2023-04-03T04:38:10;25.83;;;24.40;;
66189;SDS011;52992;52.084;5.412;2023-04-03T04:40:37;25.43;;;24.27;;
66189;SDS011;52992;52.084;5.412;2023-04-03T04:43:05;29.63;;;28.33;;
66189;SDS011;52992;52.084;5.412;2023-04-03T04:45:33;25.30;;;24.17;;
66189;SDS011;52992;52.084;5.412;2023-04-03T04:48:01;24.20;;;23.00;;
66189;SDS011;52992;52.084;5.412;2023-04-03T04:50:29;25.17;;;23.77;;
66189;SDS011;52992;52.084;5.412;2023-04-03T04:52:56;25.73;;;24.43;;
66189;SDS011;52992;52.084;5.412;2023-04-03T04:55:23;23.73;;;22.43;;
66189;SDS011;52992;52.084;5.412;2023-04-03T04:57:50;26.30;;;25.10;;
66189;SDS011;52992;52.084;5.412;2023-04-03T05:00:19;24.87;;;23.57;;
66189;SDS011;52992;52.084;5.412;2023-04-03T05:02:46;26.00;;;24.63;;
66189;SDS011;52992;52.084;5.412;2023-04-03T05:05:14;25.27;;;23.97;;
66189;SDS011;52992;52.084;5.412;2023-04-03T05:07:41;25.00;;;23.80;;
66189;SDS011;52992;52.084;5.412;2023-04-03T05:10:09;25.40;;;24.20;;
66189;SDS011;52992;52.084;5.412;2023-04-03T05:12:37;27.33;;;25.87;;
66189;SDS011;52992;52.084;5.412;2023-04-03T05:15:04;26.40;;;24.73;;
66189;SDS011;52992;52.084;5.412;2023-04-03T05:17:32;26.40;;;25.17;;
66189;SDS011;52992;52.084;5.412;2023-04-03T05:19:59;24.97;;;23.77;;
66189;SDS011;52992;52.084;5.412;2023-04-03T05:22:27;26.63;;;25.07;;
66189;SDS011;52992;52.084;5.412;2023-04-03T05:25:00;25.73;;;24.30;;
66189;SDS011;52992;52.084;5.412;2023-04-03T05:27:27;27.13;;;25.83;;
66189;SDS011;52992;52.084;5.412;2023-04-03T05:29:56;25.43;;;24.10;;
66189;SDS011;52992;52.084;5.412;2023-04-03T05:32:24;26.87;;;25.57;;
66189;SDS011;52992;52.084;5.412;2023-04-03T05:35:05;24.67;;;23.37;;
66189;SDS011;52992;52.084;5.412;2023-04-03T05:37:34;26.67;;;25.23;;
66189;SDS011;52992;52.084;5.412;2023-04-03T05:40:02;25.23;;;23.90;;
66189;SDS011;52992;52.084;5.412;2023-04-03T05:42:31;25.20;;;24.00;;
66189;SDS011;52992;52.084;5.412;2023-04-03T05:44:59;25.33;;;23.93;;
66189;SDS011;52992;52.084;5.412;2023-04-03T05:47:26;26.33;;;24.97;;
66189;SDS011;52992;52.084;5.412;2023-04-03T05:49:53;25.73;;;24.53;;
66189;SDS011;52992;52.084;5.412;2023-04-03T05:52:21;26.00;;;24.77;;
66189;SDS011;52992;52.084;5.412;2023-04-03T05:54:54;25.70;;;24.20;;
66189;SDS011;52992;52.084;5.412;2023-04-03T05:57:25;24.77;;;23.17;;
66189;SDS011;52992;52.084;5.412;2023-04-03T05:59:52;27.27;;;25.67;;
66189;SDS011;52992;52.084;5.412;2023-04-03T06:02:21;25.23;;;24.10;;
66189;SDS011;52992;52.084;5.412;2023-04-03T06:04:50;25.07;;;23.57;;
66189;SDS011;52992;52.084;5.412;2023-04-03T06:07:19;25.73;;;24.53;;
66189;SDS011;52992;52.084;5.412;2023-04-03T06:09:50;26.57;;;25.10;;
66189;SDS011;52992;52.084;5.412;2023-04-03T06:12:17;25.73;;;24.30;;
66189;SDS011;52992;52.084;5.412;2023-04-03T06:14:45;23.90;;;22.60;;
66189;SDS011;52992;52.084;5.412;2023-04-03T06:17:14;23.87;;;22.57;;
66189;SDS011;52992;52.084;5.412;2023-04-03T06:19:42;24.63;;;23.13;;
66189;SDS011;52992;52.084;5.412;2023-04-03T06:22:09;23.93;;;22.53;;
66189;SDS011;52992;52.084;5.412;2023-04-03T06:24:38;22.00;;;20.83;;
66189;SDS011;52992;52.084;5.412;2023-04-03T06:27:05;23.43;;;22.27;;
66189;SDS011;52992;52.084;5.412;2023-04-03T06:29:32;23.67;;;22.27;;
66189;SDS011;52992;52.084;5.412;2023-04-03T06:31:59;24.47;;;23.07;;
66189;SDS011;52992;52.084;5.412;2023-04-03T06:34:26;21.57;;;20.43;;
66189;SDS011;52992;52.084;5.412;2023-04-03T06:36:53;22.60;;;21.27;;
66189;SDS011;52992;52.084;5.412;2023-04-03T06:39:21;22.23;;;21.23;;
66189;SDS011;52992;52.084;5.412;2023-04-03T06:41:49;23.40;;;22.30;;
66189;SDS011;52992;52.084;5.412;2023-04-03T06:44:24;24.10;;;22.63;;
66189;SDS011;52992;52.084;5.412;2023-04-03T06:46:51;22.33;;;21.03;;
66189;SDS011;52992;52.084;5.412;2023-04-03T06:49:21;22.97;;;21.30;;
66189;SDS011;52992;52.084;5.412;2023-04-03T06:51:48;22.43;;;21.03;;
66189;SDS011;52992;52.084;5.412;2023-04-03T06:54:15;22.93;;;21.70;;
66189;SDS011;52992;52.084;5.412;2023-04-03T06:56:42;22.90;;;21.67;;
66189;SDS011;52992;52.084;5.412;2023-04-03T06:59:10;20.60;;;19.50;;
66189;SDS011;52992;52.084;5.412;2023-04-03T07:01:40;21.90;;;20.70;;
66189;SDS011;52992;52.084;5.412;2023-04-03T07:04:08;23.63;;;22.30;;
66189;SDS011;52992;52.084;5.412;2023-04-03T07:06:35;24.17;;;22.87;;
66189;SDS011;52992;52.084;5.412;2023-04-03T07:09:02;22.43;;;21.27;;
66189;SDS011;52992;52.084;5.412;2023-04-03T07:11:29;22.37;;;21.33;;
66189;SDS011;52992;52.084;5.412;2023-04-03T07:13:56;21.30;;;20.30;;
66189;SDS011;52992;52.084;5.412;2023-04-03T07:16:23;24.40;;;23.20;;
66189;SDS011;52992;52.084;5.412;2023-04-03T07:18:50;23.03;;;21.93;;
66189;SDS011;52992;52.084;5.412;2023-04-03T07:21:17;24.97;;;23.57;;
66189;SDS011;52992;52.084;5.412;2023-04-03T07:23:44;25.30;;;23.80;;
66189;SDS011;52992;52.084;5.412;2023-04-03T07:26:11;24.57;;;22.90;;
66189;SDS011;52992;52.084;5.412;2023-04-03T07:28:38;22.87;;;21.70;;
66189;SDS011;52992;52.084;5.412;2023-04-03T07:31:08;24.30;;;23.13;;
66189;SDS011;52992;52.084;5.412;2023-04-03T07:33:39;25.03;;;23.63;;
66189;SDS011;52992;52.084;5.412;2023-04-03T07:36:07;24.23;;;22.90;;
66189;SDS011;52992;52.084;5.412;2023-04-03T07:38:35;27.10;;;25.67;;
66189;SDS011;52992;52.084;5.412;2023-04-03T07:41:03;26.30;;;24.83;;
66189;SDS011;52992;52.084;5.412;2023-04-03T07:43:30;24.27;;;22.87;;
66189;SDS011;52992;52.084;5.412;2023-04-03T07:45:57;23.80;;;22.67;;
66189;SDS011;52992;52.084;5.412;2023-04-03T07:48:25;25.10;;;23.80;;
66189;SDS011;52992;52.084;5.412;2023-04-03T07:50:52;24.90;;;23.70;;
66189;SDS011;52992;52.084;5.412;2023-04-03T07:53:19;25.20;;;23.80;;
66189;SDS011;52992;52.084;5.412;2023-04-03T07:55:47;23.70;;;22.53;;
66189;SDS011;52992;52.084;5.412;2023-04-03T07:58:18;24.80;;;23.50;;
66189;SDS011;52992;52.084;5.412;2023-04-03T08:00:45;26.20;;;24.90;;
66189;SDS011;52992;52.084;5.412;2023-04-03T08:03:13;24.27;;;22.97;;
66189;SDS011;52992;52.084;5.412;2023-04-03T08:05:40;24.93;;;23.63;;
66189;SDS011;52992;52.084;5.412;2023-04-03T08:08:09;25.87;;;24.60;;
66189;SDS011;52992;52.084;5.412;2023-04-03T08:10:38;25.20;;;24.00;;
66189;SDS011;52992;52.084;5.412;2023-04-03T08:13:06;25.13;;;23.80;;
66189;SDS011;52992;52.084;5.412;2023-04-03T08:15:34;24.30;;;23.13;;
66189;SDS011;52992;52.084;5.412;2023-04-03T08:18:03;23.87;;;22.60;;
66189;SDS011;52992;52.084;5.412;2023-04-03T08:20:30;24.07;;;22.77;;
66189;SDS011;52992;52.084;5.412;2023-04-03T08:22:57;21.80;;;20.80;;
66189;SDS011;52992;52.084;5.412;2023-04-03T08:25:24;24.10;;;23.00;;
66189;SDS011;52992;52.084;5.412;2023-04-03T08:27:51;24.33;;;22.80;;
66189;SDS011;52992;52.084;5.412;2023-04-03T08:30:18;24.57;;;23.47;;
66189;SDS011;52992;52.084;5.412;2023-04-03T08:32:45;23.63;;;22.50;;
66189;SDS011;52992;52.084;5.412;2023-04-03T08:35:12;23.60;;;22.47;;
66189;SDS011;52992;52.084;5.412;2023-04-03T08:37:39;22.27;;;21.20;;
66189;SDS011;52992;52.084;5.412;2023-04-03T08:40:07;21.63;;;20.60;;
66189;SDS011;52992;52.084;5.412;2023-04-03T08:50:47;20.60;;;19.60;;
66189;SDS011;52992;52.084;5.412;2023-04-03T08:53:19;21.47;;;20.43;;
66189;SDS011;52992;52.084;5.412;2023-04-03T08:55:51;20.53;;;19.50;;
66189;SDS011;52992;52.084;5.412;2023-04-03T08:58:24;21.17;;;20.17;;
66189;SDS011;52992;52.084;5.412;2023-04-03T09:01:12;21.80;;;20.70;;
66189;SDS011;52992;52.084;5.412;2023-04-03T09:03:41;20.50;;;19.60;;
66189;SDS011;52992;52.084;5.412;2023-04-03T09:06:13;20.20;;;19.30;;
66189;SDS011;52992;52.084;5.412;2023-04-03T09:20:48;20.67;;;19.70;;
66189;SDS011;52992;52.084;5.412;2023-04-03T09:23:45;20.27;;;19.47;;
66189;SDS011;52992;52.084;5.412;2023-04-03T09:26:28;20.70;;;19.70;;
66189;SDS011;52992;52.084;5.412;2023-04-03T09:29:00;19.37;;;18.47;;
66189;SDS011;52992;52.084;5.412;2023-04-03T09:31:40;19.17;;;18.37;;
66189;SDS011;52992;52.084;5.412;2023-04-03T09:37:03;18.77;;;17.97;;
66189;SDS011;52992;52.084;5.412;2023-04-03T09:39:33;19.77;;;18.83;;
66189;SDS011;52992;52.084;5.412;2023-04-03T09:42:20;20.40;;;19.37;;
66189;SDS011;52992;52.084;5.412;2023-04-03T09:44:56;20.60;;;19.80;;
66189;SDS011;52992;52.084;5.412;2023-04-03T09:47:26;20.30;;;19.47;;
66189;SDS011;52992;52.084;5.412;2023-04-03T09:52:44;18.43;;;17.63;;
66189;SDS011;52992;52.084;5.412;2023-04-03T09:55:17;18.77;;;17.97;;
66189;SDS011;52992;52.084;5.412;2023-04-03T09:57:57;18.70;;;17.97;;
66189;SDS011;52992;52.084;5.412;2023-04-03T10:00:36;18.17;;;17.40;;
66189;SDS011;52992;52.084;5.412;2023-04-03T10:03:05;18.80;;;17.90;;
66189;SDS011;52992;52.084;5.412;2023-04-03T10:06:00;18.23;;;17.53;;
66189;SDS011;52992;52.084;5.412;2023-04-03T10:08:28;19.27;;;18.47;;
66189;SDS011;52992;52.084;5.412;2023-04-03T10:13:49;18.70;;;17.90;;
66189;SDS011;52992;52.084;5.412;2023-04-03T10:16:23;19.43;;;18.60;;
66189;SDS011;52992;52.084;5.412;2023-04-03T10:19:24;17.80;;;17.00;;
66189;SDS011;52992;52.084;5.412;2023-04-03T10:24:42;18.60;;;17.80;;
66189;SDS011;52992;52.084;5.412;2023-04-03T10:40:52;17.50;;;16.77;;
66189;SDS011;52992;52.084;5.412;2023-04-03T10:48:54;17.23;;;16.43;;
66189;SDS011;52992;52.084;5.412;2023-04-03T10:52:24;16.67;;;16.07;;
66189;SDS011;52992;52.084;5.412;2023-04-03T10:54:40;16.73;;;16.03;;
66189;SDS011;52992;52.084;5.412;2023-04-03T10:57:27;17.30;;;16.60;;
66189;SDS011;52992;52.084;5.412;2023-04-03T11:00:01;16.90;;;16.10;;
66189;SDS011;52992;52.084;5.412;2023-04-03T11:02:40;17.60;;;16.90;;
66189;SDS011;52992;52.084;5.412;2023-04-03T11:05:17;17.33;;;16.63;;
66189;SDS011;52992;52.084;5.412;2023-04-03T11:07:52;17.70;;;16.97;;
66189;SDS011;52992;52.084;5.412;2023-04-03T11:10:31;17.00;;;16.30;;
66189;SDS011;52992;52.084;5.412;2023-04-03T11:13:06;17.97;;;17.17;;
66189;SDS011;52992;52.084;5.412;2023-04-03T11:15:39;17.80;;;17.00;;
66189;SDS011;52992;52.084;5.412;2023-04-03T11:18:14;18.60;;;17.80;;
66189;SDS011;52992;52.084;5.412;2023-04-03T11:20:49;17.90;;;17.20;;
66189;SDS011;52992;52.084;5.412;2023-04-03T11:23:25;17.90;;;17.20;;
66189;SDS011;52992;52.084;5.412;2023-04-03T11:26:11;17.90;;;17.10;;
66189;SDS011;52992;52.084;5.412;2023-04-03T11:28:43;17.47;;;16.57;;
66189;SDS011;52992;52.084;5.412;2023-04-03T11:36:48;17.47;;;16.67;;
66189;SDS011;52992;52.084;5.412;2023-04-03T11:41:49;18.73;;;17.53;;
66189;SDS011;52992;52.084;5.412;2023-04-03T11:44:35;17.97;;;17.27;;
66189;SDS011;52992;52.084;5.412;2023-04-03T11:47:06;16.63;;;15.83;;
66189;SDS011;52992;52.084;5.412;2023-04-03T12:05:57;17.33;;;16.63;;
66189;SDS011;52992;52.084;5.412;2023-04-03T12:08:47;17.20;;;16.38;;
66189;SDS011;52992;52.084;5.412;2023-04-03T12:11:29;16.25;;;15.60;;
66189;SDS011;52992;52.084;5.412;2023-04-03T12:19:34;16.45;;;15.65;;
66189;SDS011;52992;52.084;5.412;2023-04-03T12:22:18;16.65;;;15.95;;
66189;SDS011;52992;52.084;5.412;2023-04-03T12:24:48;15.90;;;15.10;;
66189;SDS011;52992;52.084;5.412;2023-04-03T12:27:33;16.73;;;16.00;;
66189;SDS011;52992;52.084;5.412;2023-04-03T12:30:12;16.15;;;15.45;;
66189;SDS011;52992;52.084;5.412;2023-04-03T12:36:23;15.40;;;14.80;;
66189;SDS011;52992;52.084;5.412;2023-04-03T12:47:00;15.40;;;14.70;;
66189;SDS011;52992;52.084;5.412;2023-04-03T12:49:37;15.68;;;14.98;;
66189;SDS011;52992;52.084;5.412;2023-04-03T12:52:16;15.52;;;14.90;;
66189;SDS011;52992;52.084;5.412;2023-04-03T12:54:56;16.60;;;15.90;;
66189;SDS011;52992;52.084;5.412;2023-04-03T12:57:25;16.77;;;15.97;;
66189;SDS011;52992;52.084;5.412;2023-04-03T12:59:53;17.02;;;16.20;;
66189;SDS011;52992;52.084;5.412;2023-04-03T13:02:28;17.23;;;16.53;;
66189;SDS011;52992;52.084;5.412;2023-04-03T13:04:57;17.60;;;16.77;;
66189;SDS011;52992;52.084;5.412;2023-04-03T13:07:28;18.17;;;17.30;;
66189;SDS011;52992;52.084;5.412;2023-04-03T13:10:03;17.67;;;16.87;;
66189;SDS011;52992;52.084;5.412;2023-04-03T13:12:30;18.50;;;17.60;;
66189;SDS011;52992;52.084;5.412;2023-04-03T13:14:59;17.17;;;16.47;;
66189;SDS011;52992;52.084;5.412;2023-04-03T13:17:30;17.97;;;17.17;;
66189;SDS011;52992;52.084;5.412;2023-04-03T13:20:09;17.73;;;16.93;;
66189;SDS011;52992;52.084;5.412;2023-04-03T13:22:39;18.33;;;17.43;;
66189;SDS011;52992;52.084;5.412;2023-04-03T13:25:19;19.00;;;18.10;;
66189;SDS011;52992;52.084;5.412;2023-04-03T13:27:48;19.47;;;18.60;;
66189;SDS011;52992;52.084;5.412;2023-04-03T13:30:25;19.03;;;18.03;;
66189;SDS011;52992;52.084;5.412;2023-04-03T13:32:53;18.57;;;17.73;;
66189;SDS011;52992;52.084;5.412;2023-04-03T13:40:56;18.37;;;17.47;;
66189;SDS011;52992;52.084;5.412;2023-04-03T13:43:27;18.67;;;17.87;;
66189;SDS011;52992;52.084;5.412;2023-04-03T13:45:58;19.70;;;18.80;;
66189;SDS011;52992;52.084;5.412;2023-04-03T13:48:52;18.13;;;17.43;;
66189;SDS011;52992;52.084;5.412;2023-04-03T13:51:28;19.10;;;18.10;;
66189;SDS011;52992;52.084;5.412;2023-04-03T13:54:00;18.07;;;17.27;;
66189;SDS011;52992;52.084;5.412;2023-04-03T13:56:39;19.20;;;18.40;;
66189;SDS011;52992;52.084;5.412;2023-04-03T14:01:41;19.10;;;18.20;;
66189;SDS011;52992;52.084;5.412;2023-04-03T14:04:18;18.80;;;18.00;;
66189;SDS011;52992;52.084;5.412;2023-04-03T14:06:50;19.10;;;18.20;;
66189;SDS011;52992;52.084;5.412;2023-04-03T14:09:19;19.07;;;17.93;;
66189;SDS011;52992;52.084;5.412;2023-04-03T14:11:49;19.60;;;18.60;;
66189;SDS011;52992;52.084;5.412;2023-04-03T14:14:20;19.80;;;18.90;;
66189;SDS011;52992;52.084;5.412;2023-04-03T14:16:51;19.67;;;18.77;;
66189;SDS011;52992;52.084;5.412;2023-04-03T14:19:25;19.60;;;18.70;;
66189;SDS011;52992;52.084;5.412;2023-04-03T14:21:54;20.57;;;19.37;;
66189;SDS011;52992;52.084;5.412;2023-04-03T14:24:22;20.40;;;19.43;;
66189;SDS011;52992;52.084;5.412;2023-04-03T14:26:50;20.53;;;19.63;;
66189;SDS011;52992;52.084;5.412;2023-04-03T14:29:18;20.10;;;19.10;;
66189;SDS011;52992;52.084;5.412;2023-04-03T14:31:47;19.50;;;18.60;;
66189;SDS011;52992;52.084;5.412;2023-04-03T14:34:23;19.80;;;18.90;;
66189;SDS011;52992;52.084;5.412;2023-04-03T14:36:50;21.53;;;20.63;;
66189;SDS011;52992;52.084;5.412;2023-04-03T14:39:18;21.93;;;20.83;;
66189;SDS011;52992;52.084;5.412;2023-04-03T14:41:45;21.73;;;20.73;;
66189;SDS011;52992;52.084;5.412;2023-04-03T14:44:12;22.37;;;21.27;;
66189;SDS011;52992;52.084;5.412;2023-04-03T14:46:41;23.33;;;22.23;;
66189;SDS011;52992;52.084;5.412;2023-04-03T14:49:14;23.47;;;22.47;;
66189;SDS011;52992;52.084;5.412;2023-04-03T14:51:45;23.20;;;22.10;;
66189;SDS011;52992;52.084;5.412;2023-04-03T14:54:13;23.77;;;22.60;;
66189;SDS011;52992;52.084;5.412;2023-04-03T14:56:42;23.23;;;22.13;;
66189;SDS011;52992;52.084;5.412;2023-04-03T14:59:11;24.00;;;23.00;;
66189;SDS011;52992;52.084;5.412;2023-04-03T15:01:39;24.30;;;23.20;;
66189;SDS011;52992;52.084;5.412;2023-04-03T15:04:12;24.50;;;23.40;;
66189;SDS011;52992;52.084;5.412;2023-04-03T15:06:43;26.27;;;25.10;;
66189;SDS011;52992;52.084;5.412;2023-04-03T15:09:19;24.73;;;23.63;;
66189;SDS011;52992;52.084;5.412;2023-04-03T15:11:48;26.40;;;25.20;;
66189;SDS011;52992;52.084;5.412;2023-04-03T15:14:16;25.77;;;24.57;;
66189;SDS011;52992;52.084;5.412;2023-04-03T15:17:03;26.43;;;25.17;;
66189;SDS011;52992;52.084;5.412;2023-04-03T15:19:40;26.73;;;25.43;;
66189;SDS011;52992;52.084;5.412;2023-04-03T15:22:08;26.33;;;25.07;;
66189;SDS011;52992;52.084;5.412;2023-04-03T15:24:40;26.97;;;25.67;;
66189;SDS011;52992;52.084;5.412;2023-04-03T15:27:08;28.30;;;26.93;;
66189;SDS011;52992;52.084;5.412;2023-04-03T15:29:36;28.63;;;27.03;;
66189;SDS011;52992;52.084;5.412;2023-04-03T15:32:04;29.23;;;27.50;;
66189;SDS011;52992;52.084;5.412;2023-04-03T15:34:31;26.97;;;25.57;;
66189;SDS011;52992;52.084;5.412;2023-04-03T15:36:58;31.70;;;29.33;;
66189;SDS011;52992;52.084;5.412;2023-04-03T15:39:25;26.37;;;25.07;;
66189;SDS011;52992;52.084;5.412;2023-04-03T15:41:52;26.10;;;24.90;;
66189;SDS011;52992;52.084;5.412;2023-04-03T15:44:20;25.20;;;24.10;;
66189;SDS011;52992;52.084;5.412;2023-04-03T15:46:48;26.47;;;25.27;;
66189;SDS011;52992;52.084;5.412;2023-04-03T15:49:18;27.07;;;25.77;;
66189;SDS011;52992;52.084;5.412;2023-04-03T15:51:47;26.03;;;24.83;;
66189;SDS011;52992;52.084;5.412;2023-04-03T15:54:15;26.93;;;25.57;;
66189;SDS011;52992;52.084;5.412;2023-04-03T15:56:42;26.07;;;24.80;;
66189;SDS011;52992;52.084;5.412;2023-04-03T15:59:09;25.93;;;24.83;;
66189;SDS011;52992;52.084;5.412;2023-04-03T16:01:37;25.07;;;23.87;;
66189;SDS011;52992;52.084;5.412;2023-04-03T16:04:06;25.77;;;24.43;;
66189;SDS011;52992;52.084;5.412;2023-04-03T16:06:34;25.67;;;24.40;;
66189;SDS011;52992;52.084;5.412;2023-04-03T16:09:02;24.80;;;23.70;;
66189;SDS011;52992;52.084;5.412;2023-04-03T16:11:29;25.33;;;24.03;;
66189;SDS011;52992;52.084;5.412;2023-04-03T16:13:56;26.20;;;24.90;;
66189;SDS011;52992;52.084;5.412;2023-04-03T16:16:23;27.47;;;26.13;;
66189;SDS011;52992;52.084;5.412;2023-04-03T16:18:52;26.20;;;24.97;;
66189;SDS011;52992;52.084;5.412;2023-04-03T16:21:22;24.93;;;23.73;;
66189;SDS011;52992;52.084;5.412;2023-04-03T16:23:49;26.30;;;24.87;;
66189;SDS011;52992;52.084;5.412;2023-04-03T16:26:16;26.33;;;25.13;;
66189;SDS011;52992;52.084;5.412;2023-04-03T16:28:46;28.07;;;26.50;;